sensor_id;sensor_type;location;lat;lon;timestamp;temperature;humidity
2389;DHT22;1205;47.984;7.668;2022-11-12T00:00:40;7.30;99.90
2389;DHT22;1205;47.984;7.668;2022-11-12T00:03:06;7.30;99.90
2389;DHT22;1205;47.984;7.668;2022-11-12T00:05:32;7.30;99.90
2389;DHT22;1205;47.984;7.668;2022-11-12T00:07:58;7.30;99.90
2389;DHT22;1205;47.984;7.668;2022-11-12T00:10:24;7.30;99.90
2389;DHT22;1205;47.984;7.668;2022-11-12T00:12:49;7.30;99.90
2389;DHT22;1205;47.984;7.668;2022-11-12T00:15:15;7.20;99.90
2389;DHT22;1205;47.984;7.668;2022-11-12T00:17:41;7.20;99.90
2389;DHT22;1205;47.984;7.668;2022-11-12T00:20:07;7.20;99.90
2389;DHT22;1205;47.984;7.668;2022-11-12T00:22:33;7.20;99.90
2389;DHT22;1205;47.984;7.668;2022-11-12T00:24:59;7.20;99.90
2389;DHT22;1205;47.984;7.668;2022-11-12T00:27:24;7.20;99.90
2389;DHT22;1205;47.984;7.668;2022-11-12T00:29:50;7.20;99.90
2389;DHT22;1205;47.984;7.668;2022-11-12T00:32:15;7.30;99.90
2389;DHT22;1205;47.984;7.668;2022-11-12T00:34:41;7.30;99.90
2389;DHT22;1205;47.984;7.668;2022-11-12T00:37:06;7.30;99.90
2389;DHT22;1205;47.984;7.668;2022-11-12T00:39:32;7.40;99.90
2389;DHT22;1205;47.984;7.668;2022-11-12T00:41:58;7.40;99.90
2389;DHT22;1205;47.984;7.668;2022-11-12T00:44:24;7.40;99.90
2389;DHT22;1205;47.984;7.668;2022-11-12T00:46:49;7.50;99.90
2389;DHT22;1205;47.984;7.668;2022-11-12T00:49:15;7.50;99.90
2389;DHT22;1205;47.984;7.668;2022-11-12T00:51:41;7.60;99.90
2389;DHT22;1205;47.984;7.668;2022-11-12T00:54:07;7.50;99.90
2389;DHT22;1205;47.984;7.668;2022-11-12T00:56:33;7.50;99.90
2389;DHT22;1205;47.984;7.668;2022-11-12T00:58:58;7.50;99.90
2389;DHT22;1205;47.984;7.668;2022-11-12T01:01:24;7.60;99.90
2389;DHT22;1205;47.984;7.668;2022-11-12T01:03:50;7.60;99.90
2389;DHT22;1205;47.984;7.668;2022-11-12T01:06:21;7.60;99.90
2389;DHT22;1205;47.984;7.668;2022-11-12T01:08:48;7.60;99.90
2389;DHT22;1205;47.984;7.668;2022-11-12T01:11:17;7.60;99.90
2389;DHT22;1205;47.984;7.668;2022-11-12T01:13:45;7.50;99.90
2389;DHT22;1205;47.984;7.668;2022-11-12T01:16:17;7.50;99.90
2389;DHT22;1205;47.984;7.668;2022-11-12T01:18:47;7.60;99.90
2389;DHT22;1205;47.984;7.668;2022-11-12T01:21:17;7.60;99.90
2389;DHT22;1205;47.984;7.668;2022-11-12T01:23:42;7.60;99.90
2389;DHT22;1205;47.984;7.668;2022-11-12T01:26:13;7.60;99.90
2389;DHT22;1205;47.984;7.668;2022-11-12T01:28:39;7.50;99.90
2389;DHT22;1205;47.984;7.668;2022-11-12T01:33:51;7.70;99.90
2389;DHT22;1205;47.984;7.668;2022-11-12T01:36:18;7.70;99.90
2389;DHT22;1205;47.984;7.668;2022-11-12T01:38:44;7.70;99.90
2389;DHT22;1205;47.984;7.668;2022-11-12T01:41:14;7.80;99.90
2389;DHT22;1205;47.984;7.668;2022-11-12T01:43:39;7.70;99.90
2389;DHT22;1205;47.984;7.668;2022-11-12T01:46:19;7.70;99.90
2389;DHT22;1205;47.984;7.668;2022-11-12T01:48:58;7.70;99.90
2389;DHT22;1205;47.984;7.668;2022-11-12T01:51:32;7.80;99.90
2389;DHT22;1205;47.984;7.668;2022-11-12T01:54:01;7.80;99.90
2389;DHT22;1205;47.984;7.668;2022-11-12T01:56:29;7.80;99.90
2389;DHT22;1205;47.984;7.668;2022-11-12T01:59:01;7.90;99.90
2389;DHT22;1205;47.984;7.668;2022-11-12T02:01:28;7.90;99.90
2389;DHT22;1205;47.984;7.668;2022-11-12T02:03:55;7.90;99.90
2389;DHT22;1205;47.984;7.668;2022-11-12T02:06:21;7.90;99.90
2389;DHT22;1205;47.984;7.668;2022-11-12T02:08:48;7.80;99.90
2389;DHT22;1205;47.984;7.668;2022-11-12T02:11:17;7.80;99.90
2389;DHT22;1205;47.984;7.668;2022-11-12T02:13:44;7.90;99.90
2389;DHT22;1205;47.984;7.668;2022-11-12T02:16:38;7.80;99.90
2389;DHT22;1205;47.984;7.668;2022-11-12T02:19:10;7.90;99.90
2389;DHT22;1205;47.984;7.668;2022-11-12T02:21:36;7.90;99.90
2389;DHT22;1205;47.984;7.668;2022-11-12T02:26:44;7.90;99.90
2389;DHT22;1205;47.984;7.668;2022-11-12T02:29:10;7.90;99.90
2389;DHT22;1205;47.984;7.668;2022-11-12T02:31:36;7.90;99.90
2389;DHT22;1205;47.984;7.668;2022-11-12T02:34:02;7.90;99.90
2389;DHT22;1205;47.984;7.668;2022-11-12T02:36:28;7.90;99.90
2389;DHT22;1205;47.984;7.668;2022-11-12T02:38:54;7.90;99.90
2389;DHT22;1205;47.984;7.668;2022-11-12T02:41:20;7.90;99.90
2389;DHT22;1205;47.984;7.668;2022-11-12T02:43:45;7.90;99.90
2389;DHT22;1205;47.984;7.668;2022-11-12T02:46:11;7.90;99.90
2389;DHT22;1205;47.984;7.668;2022-11-12T02:48:37;7.90;99.90
2389;DHT22;1205;47.984;7.668;2022-11-12T02:51:03;7.90;99.90
2389;DHT22;1205;47.984;7.668;2022-11-12T02:53:28;7.90;99.90
2389;DHT22;1205;47.984;7.668;2022-11-12T02:55:54;7.90;99.90
2389;DHT22;1205;47.984;7.668;2022-11-12T02:58:19;7.70;99.90
2389;DHT22;1205;47.984;7.668;2022-11-12T03:00:47;7.70;99.90
2389;DHT22;1205;47.984;7.668;2022-11-12T03:03:13;7.60;99.90
2389;DHT22;1205;47.984;7.668;2022-11-12T03:05:38;7.50;99.90
2389;DHT22;1205;47.984;7.668;2022-11-12T03:08:06;7.50;99.90
2389;DHT22;1205;47.984;7.668;2022-11-12T03:10:32;7.50;99.90
2389;DHT22;1205;47.984;7.668;2022-11-12T03:13:00;7.50;99.90
2389;DHT22;1205;47.984;7.668;2022-11-12T03:15:27;7.50;99.90
2389;DHT22;1205;47.984;7.668;2022-11-12T03:17:53;7.50;99.90
2389;DHT22;1205;47.984;7.668;2022-11-12T03:20:19;7.50;99.90
2389;DHT22;1205;47.984;7.668;2022-11-12T03:22:55;7.50;99.90
2389;DHT22;1205;47.984;7.668;2022-11-12T03:25:21;7.50;99.90
2389;DHT22;1205;47.984;7.668;2022-11-12T03:27:47;7.50;99.90
2389;DHT22;1205;47.984;7.668;2022-11-12T03:30:12;7.50;99.90
2389;DHT22;1205;47.984;7.668;2022-11-12T03:32:38;7.50;99.90
2389;DHT22;1205;47.984;7.668;2022-11-12T03:35:04;7.50;99.90
2389;DHT22;1205;47.984;7.668;2022-11-12T03:37:30;7.60;99.90
2389;DHT22;1205;47.984;7.668;2022-11-12T03:39:55;7.60;99.90
2389;DHT22;1205;47.984;7.668;2022-11-12T03:42:21;7.60;99.90
2389;DHT22;1205;47.984;7.668;2022-11-12T03:44:46;7.60;99.90
2389;DHT22;1205;47.984;7.668;2022-11-12T03:47:12;7.60;99.90
2389;DHT22;1205;47.984;7.668;2022-11-12T03:49:37;7.60;99.90
2389;DHT22;1205;47.984;7.668;2022-11-12T03:52:03;7.60;99.90
2389;DHT22;1205;47.984;7.668;2022-11-12T03:54:28;7.70;99.90
2389;DHT22;1205;47.984;7.668;2022-11-12T03:56:54;7.70;99.90
2389;DHT22;1205;47.984;7.668;2022-11-12T03:59:19;7.70;99.90
2389;DHT22;1205;47.984;7.668;2022-11-12T04:01:45;7.70;99.90
2389;DHT22;1205;47.984;7.668;2022-11-12T04:04:10;7.70;99.90
2389;DHT22;1205;47.984;7.668;2022-11-12T04:06:36;7.60;99.90
2389;DHT22;1205;47.984;7.668;2022-11-12T04:09:20;7.60;99.90
2389;DHT22;1205;47.984;7.668;2022-11-12T04:11:46;7.60;99.90
2389;DHT22;1205;47.984;7.668;2022-11-12T04:14:11;7.60;99.90
2389;DHT22;1205;47.984;7.668;2022-11-12T04:16:37;7.60;99.90
2389;DHT22;1205;47.984;7.668;2022-11-12T04:19:21;7.60;99.90
2389;DHT22;1205;47.984;7.668;2022-11-12T04:22:10;7.50;99.90
2389;DHT22;1205;47.984;7.668;2022-11-12T04:24:37;7.50;99.90
2389;DHT22;1205;47.984;7.668;2022-11-12T04:27:24;7.50;99.90
2389;DHT22;1205;47.984;7.668;2022-11-12T04:29:51;7.40;99.90
2389;DHT22;1205;47.984;7.668;2022-11-12T04:32:40;7.40;99.90
2389;DHT22;1205;47.984;7.668;2022-11-12T04:35:09;7.40;99.90
2389;DHT22;1205;47.984;7.668;2022-11-12T04:37:35;7.40;99.90
2389;DHT22;1205;47.984;7.668;2022-11-12T04:40:23;7.30;99.90
2389;DHT22;1205;47.984;7.668;2022-11-12T04:43:11;7.40;99.90
2389;DHT22;1205;47.984;7.668;2022-11-12T04:45:55;7.40;99.90
2389;DHT22;1205;47.984;7.668;2022-11-12T04:48:22;7.40;99.90
2389;DHT22;1205;47.984;7.668;2022-11-12T04:50:53;7.30;99.90
2389;DHT22;1205;47.984;7.668;2022-11-12T04:53:20;7.30;99.90
2389;DHT22;1205;47.984;7.668;2022-11-12T04:55:52;7.30;99.90
2389;DHT22;1205;47.984;7.668;2022-11-12T04:58:18;7.40;99.90
2389;DHT22;1205;47.984;7.668;2022-11-12T05:00:43;7.40;99.90
2389;DHT22;1205;47.984;7.668;2022-11-12T05:03:09;7.40;99.90
2389;DHT22;1205;47.984;7.668;2022-11-12T05:05:35;7.40;99.90
2389;DHT22;1205;47.984;7.668;2022-11-12T05:08:01;7.40;99.90
2389;DHT22;1205;47.984;7.668;2022-11-12T05:10:27;7.40;99.90
2389;DHT22;1205;47.984;7.668;2022-11-12T05:12:52;7.30;99.90
2389;DHT22;1205;47.984;7.668;2022-11-12T05:15:18;7.30;99.90
2389;DHT22;1205;47.984;7.668;2022-11-12T05:17:44;7.30;99.90
2389;DHT22;1205;47.984;7.668;2022-11-12T05:20:11;7.30;99.90
2389;DHT22;1205;47.984;7.668;2022-11-12T05:22:37;7.20;99.90
2389;DHT22;1205;47.984;7.668;2022-11-12T05:25:03;7.20;99.90
2389;DHT22;1205;47.984;7.668;2022-11-12T05:27:28;7.20;99.90
2389;DHT22;1205;47.984;7.668;2022-11-12T05:29:54;7.20;99.90
2389;DHT22;1205;47.984;7.668;2022-11-12T05:32:20;7.20;99.90
2389;DHT22;1205;47.984;7.668;2022-11-12T05:34:45;7.20;99.90
2389;DHT22;1205;47.984;7.668;2022-11-12T05:37:12;7.20;99.90
2389;DHT22;1205;47.984;7.668;2022-11-12T05:39:38;7.20;99.90
2389;DHT22;1205;47.984;7.668;2022-11-12T05:42:04;7.20;99.90
2389;DHT22;1205;47.984;7.668;2022-11-12T05:44:30;7.30;99.90
2389;DHT22;1205;47.984;7.668;2022-11-12T05:46:56;7.30;99.90
2389;DHT22;1205;47.984;7.668;2022-11-12T05:49:21;7.40;99.90
2389;DHT22;1205;47.984;7.668;2022-11-12T05:51:47;7.40;99.90
2389;DHT22;1205;47.984;7.668;2022-11-12T05:54:13;7.40;99.90
2389;DHT22;1205;47.984;7.668;2022-11-12T05:56:38;7.40;99.90
2389;DHT22;1205;47.984;7.668;2022-11-12T05:59:09;7.30;99.90
2389;DHT22;1205;47.984;7.668;2022-11-12T06:01:35;7.30;99.90
2389;DHT22;1205;47.984;7.668;2022-11-12T06:04:11;7.40;99.90
2389;DHT22;1205;47.984;7.668;2022-11-12T06:06:38;7.40;99.90
2389;DHT22;1205;47.984;7.668;2022-11-12T06:09:04;7.40;99.90
2389;DHT22;1205;47.984;7.668;2022-11-12T06:11:29;7.40;99.90
2389;DHT22;1205;47.984;7.668;2022-11-12T06:13:55;7.30;99.90
2389;DHT22;1205;47.984;7.668;2022-11-12T06:16:21;7.40;99.90
2389;DHT22;1205;47.984;7.668;2022-11-12T06:18:46;7.40;99.90
2389;DHT22;1205;47.984;7.668;2022-11-12T06:21:12;7.40;99.90
2389;DHT22;1205;47.984;7.668;2022-11-12T06:23:44;7.40;99.90
2389;DHT22;1205;47.984;7.668;2022-11-12T06:26:09;7.40;99.90
2389;DHT22;1205;47.984;7.668;2022-11-12T06:28:35;7.40;99.90
2389;DHT22;1205;47.984;7.668;2022-11-12T06:31:01;7.40;99.90
2389;DHT22;1205;47.984;7.668;2022-11-12T06:33:26;7.40;99.90
2389;DHT22;1205;47.984;7.668;2022-11-12T06:35:59;7.40;99.90
2389;DHT22;1205;47.984;7.668;2022-11-12T06:38:31;7.40;99.90
2389;DHT22;1205;47.984;7.668;2022-11-12T06:40:56;7.50;99.90
2389;DHT22;1205;47.984;7.668;2022-11-12T06:43:23;7.40;99.90
2389;DHT22;1205;47.984;7.668;2022-11-12T06:45:48;7.40;99.90
2389;DHT22;1205;47.984;7.668;2022-11-12T06:48:14;7.40;99.90
2389;DHT22;1205;47.984;7.668;2022-11-12T06:50:39;7.40;99.90
2389;DHT22;1205;47.984;7.668;2022-11-12T06:53:05;7.40;99.90
2389;DHT22;1205;47.984;7.668;2022-11-12T06:55:31;7.20;99.90
2389;DHT22;1205;47.984;7.668;2022-11-12T06:57:56;7.20;99.90
2389;DHT22;1205;47.984;7.668;2022-11-12T07:00:22;7.10;99.90
2389;DHT22;1205;47.984;7.668;2022-11-12T07:02:48;7.10;99.90
2389;DHT22;1205;47.984;7.668;2022-11-12T07:05:13;7.00;99.90
2389;DHT22;1205;47.984;7.668;2022-11-12T07:07:39;7.00;99.90
2389;DHT22;1205;47.984;7.668;2022-11-12T07:10:05;7.10;99.90
2389;DHT22;1205;47.984;7.668;2022-11-12T07:12:31;7.10;99.90
2389;DHT22;1205;47.984;7.668;2022-11-12T07:14:56;7.20;99.90
2389;DHT22;1205;47.984;7.668;2022-11-12T07:17:22;7.20;99.90
2389;DHT22;1205;47.984;7.668;2022-11-12T07:19:47;7.20;99.90
2389;DHT22;1205;47.984;7.668;2022-11-12T07:22:13;7.20;99.90
2389;DHT22;1205;47.984;7.668;2022-11-12T07:24:38;7.10;99.90
2389;DHT22;1205;47.984;7.668;2022-11-12T07:27:04;7.20;99.90
2389;DHT22;1205;47.984;7.668;2022-11-12T07:29:29;7.20;99.90
2389;DHT22;1205;47.984;7.668;2022-11-12T07:31:55;7.30;99.90
2389;DHT22;1205;47.984;7.668;2022-11-12T07:34:21;7.40;99.90
2389;DHT22;1205;47.984;7.668;2022-11-12T07:36:46;7.40;99.90
2389;DHT22;1205;47.984;7.668;2022-11-12T07:39:15;7.50;99.90
2389;DHT22;1205;47.984;7.668;2022-11-12T07:41:41;7.60;99.90
2389;DHT22;1205;47.984;7.668;2022-11-12T07:44:06;7.60;99.90
2389;DHT22;1205;47.984;7.668;2022-11-12T07:46:32;7.60;99.90
2389;DHT22;1205;47.984;7.668;2022-11-12T07:48:58;7.50;99.90
2389;DHT22;1205;47.984;7.668;2022-11-12T07:51:25;7.60;99.90
2389;DHT22;1205;47.984;7.668;2022-11-12T07:53:56;7.70;99.90
2389;DHT22;1205;47.984;7.668;2022-11-12T07:56:24;7.70;99.90
2389;DHT22;1205;47.984;7.668;2022-11-12T07:58:50;7.80;99.90
2389;DHT22;1205;47.984;7.668;2022-11-12T08:03:47;7.90;99.90
2389;DHT22;1205;47.984;7.668;2022-11-12T08:06:12;7.90;99.90
2389;DHT22;1205;47.984;7.668;2022-11-12T08:08:38;8.00;99.90
2389;DHT22;1205;47.984;7.668;2022-11-12T08:11:04;8.00;99.90
2389;DHT22;1205;47.984;7.668;2022-11-12T08:13:30;8.00;99.90
2389;DHT22;1205;47.984;7.668;2022-11-12T08:15:57;8.10;99.90
2389;DHT22;1205;47.984;7.668;2022-11-12T08:18:23;8.10;99.90
2389;DHT22;1205;47.984;7.668;2022-11-12T08:20:48;8.20;99.90
2389;DHT22;1205;47.984;7.668;2022-11-12T08:23:14;8.20;99.90
2389;DHT22;1205;47.984;7.668;2022-11-12T08:25:40;8.20;99.90
2389;DHT22;1205;47.984;7.668;2022-11-12T08:28:05;8.30;99.90
2389;DHT22;1205;47.984;7.668;2022-11-12T08:30:31;8.30;99.90
2389;DHT22;1205;47.984;7.668;2022-11-12T08:32:58;8.10;99.90
2389;DHT22;1205;47.984;7.668;2022-11-12T08:35:25;8.10;99.90
2389;DHT22;1205;47.984;7.668;2022-11-12T08:37:57;8.20;99.90
2389;DHT22;1205;47.984;7.668;2022-11-12T08:40:22;8.30;99.90
2389;DHT22;1205;47.984;7.668;2022-11-12T08:42:58;8.20;99.90
2389;DHT22;1205;47.984;7.668;2022-11-12T08:45:25;8.30;99.90
2389;DHT22;1205;47.984;7.668;2022-11-12T08:47:50;8.20;99.90
2389;DHT22;1205;47.984;7.668;2022-11-12T08:50:17;8.30;99.90
2389;DHT22;1205;47.984;7.668;2022-11-12T08:52:42;8.20;99.90
2389;DHT22;1205;47.984;7.668;2022-11-12T08:55:08;8.20;99.90
2389;DHT22;1205;47.984;7.668;2022-11-12T08:57:39;8.00;99.90
2389;DHT22;1205;47.984;7.668;2022-11-12T09:00:06;8.00;99.90
2389;DHT22;1205;47.984;7.668;2022-11-12T09:02:32;8.90;99.90
2389;DHT22;1205;47.984;7.668;2022-11-12T09:04:57;9.50;99.90
2389;DHT22;1205;47.984;7.668;2022-11-12T09:07:23;9.80;99.90
2389;DHT22;1205;47.984;7.668;2022-11-12T09:09:48;9.40;99.90
2389;DHT22;1205;47.984;7.668;2022-11-12T09:12:14;9.00;99.90
2389;DHT22;1205;47.984;7.668;2022-11-12T09:14:44;8.70;99.90
2389;DHT22;1205;47.984;7.668;2022-11-12T09:17:10;8.60;99.90
2389;DHT22;1205;47.984;7.668;2022-11-12T09:19:36;8.40;99.90
2389;DHT22;1205;47.984;7.668;2022-11-12T09:22:01;8.40;99.90
2389;DHT22;1205;47.984;7.668;2022-11-12T09:24:27;8.50;99.90
2389;DHT22;1205;47.984;7.668;2022-11-12T09:26:52;8.40;99.90
2389;DHT22;1205;47.984;7.668;2022-11-12T09:29:18;8.50;99.90
2389;DHT22;1205;47.984;7.668;2022-11-12T09:31:44;8.60;99.90
2389;DHT22;1205;47.984;7.668;2022-11-12T09:34:10;8.50;99.90
2389;DHT22;1205;47.984;7.668;2022-11-12T09:36:35;8.60;99.90
2389;DHT22;1205;47.984;7.668;2022-11-12T09:39:01;8.60;99.90
2389;DHT22;1205;47.984;7.668;2022-11-12T09:41:35;8.60;99.90
2389;DHT22;1205;47.984;7.668;2022-11-12T09:44:03;8.60;99.90
2389;DHT22;1205;47.984;7.668;2022-11-12T09:46:58;8.60;99.90
2389;DHT22;1205;47.984;7.668;2022-11-12T09:49:37;8.70;99.90
2389;DHT22;1205;47.984;7.668;2022-11-12T09:52:26;8.70;99.90
2389;DHT22;1205;47.984;7.668;2022-11-12T09:55:07;8.70;99.90
2389;DHT22;1205;47.984;7.668;2022-11-12T09:57:34;8.70;99.90
2389;DHT22;1205;47.984;7.668;2022-11-12T10:00:00;8.70;99.90
2389;DHT22;1205;47.984;7.668;2022-11-12T10:02:32;8.80;99.90
2389;DHT22;1205;47.984;7.668;2022-11-12T10:05:28;8.90;99.90
2389;DHT22;1205;47.984;7.668;2022-11-12T10:08:06;8.90;99.90
2389;DHT22;1205;47.984;7.668;2022-11-12T10:10:43;8.90;99.90
2389;DHT22;1205;47.984;7.668;2022-11-12T10:15:57;8.70;99.90
2389;DHT22;1205;47.984;7.668;2022-11-12T10:24:19;8.90;99.90
2389;DHT22;1205;47.984;7.668;2022-11-12T10:26:45;9.00;99.90
2389;DHT22;1205;47.984;7.668;2022-11-12T10:31:41;9.00;99.90
2389;DHT22;1205;47.984;7.668;2022-11-12T10:36:52;9.00;99.90
2389;DHT22;1205;47.984;7.668;2022-11-12T10:39:39;9.00;99.90
2389;DHT22;1205;47.984;7.668;2022-11-12T10:42:16;8.90;99.90
2389;DHT22;1205;47.984;7.668;2022-11-12T10:44:43;8.70;99.90
2389;DHT22;1205;47.984;7.668;2022-11-12T10:47:22;8.70;99.90
2389;DHT22;1205;47.984;7.668;2022-11-12T10:52:33;8.80;99.90
2389;DHT22;1205;47.984;7.668;2022-11-12T10:57:30;8.80;99.90
2389;DHT22;1205;47.984;7.668;2022-11-12T11:00:15;8.80;99.90
2389;DHT22;1205;47.984;7.668;2022-11-12T11:02:51;9.00;99.90
2389;DHT22;1205;47.984;7.668;2022-11-12T11:05:27;9.10;99.90
2389;DHT22;1205;47.984;7.668;2022-11-12T11:07:53;9.00;99.90
2389;DHT22;1205;47.984;7.668;2022-11-12T11:10:28;8.90;99.90
2389;DHT22;1205;47.984;7.668;2022-11-12T11:13:29;8.90;99.90
2389;DHT22;1205;47.984;7.668;2022-11-12T11:16:07;8.90;99.90
2389;DHT22;1205;47.984;7.668;2022-11-12T11:18:36;8.90;99.90
2389;DHT22;1205;47.984;7.668;2022-11-12T11:24:33;9.00;99.90
2389;DHT22;1205;47.984;7.668;2022-11-12T11:41:15;9.30;99.90
2389;DHT22;1205;47.984;7.668;2022-11-12T11:49:34;9.20;99.90
2389;DHT22;1205;47.984;7.668;2022-11-12T11:58:25;9.30;99.90
2389;DHT22;1205;47.984;7.668;2022-11-12T12:09:37;9.20;99.90
2389;DHT22;1205;47.984;7.668;2022-11-12T12:17:49;9.30;99.90
2389;DHT22;1205;47.984;7.668;2022-11-12T12:20:38;9.30;99.90
2389;DHT22;1205;47.984;7.668;2022-11-12T12:23:24;9.30;99.90
2389;DHT22;1205;47.984;7.668;2022-11-12T12:25:51;9.40;99.90
2389;DHT22;1205;47.984;7.668;2022-11-12T12:30:55;9.50;99.90
2389;DHT22;1205;47.984;7.668;2022-11-12T12:33:42;9.60;99.90
2389;DHT22;1205;47.984;7.668;2022-11-12T12:36:16;9.60;99.90
2389;DHT22;1205;47.984;7.668;2022-11-12T12:38:47;9.60;99.90
2389;DHT22;1205;47.984;7.668;2022-11-12T12:41:20;9.60;99.90
2389;DHT22;1205;47.984;7.668;2022-11-12T12:43:55;9.50;99.90
2389;DHT22;1205;47.984;7.668;2022-11-12T12:46:24;9.50;99.90
2389;DHT22;1205;47.984;7.668;2022-11-12T12:48:52;9.50;99.90
2389;DHT22;1205;47.984;7.668;2022-11-12T12:51:19;9.50;99.90
2389;DHT22;1205;47.984;7.668;2022-11-12T12:53:45;9.50;99.90
2389;DHT22;1205;47.984;7.668;2022-11-12T13:06:15;10.00;99.90
2389;DHT22;1205;47.984;7.668;2022-11-12T13:08:56;9.80;99.90
2389;DHT22;1205;47.984;7.668;2022-11-12T13:32:57;9.40;99.90
2389;DHT22;1205;47.984;7.668;2022-11-12T13:35:36;9.40;99.90
2389;DHT22;1205;47.984;7.668;2022-11-12T13:45:46;9.60;99.90
2389;DHT22;1205;47.984;7.668;2022-11-12T13:48:28;9.50;99.90
2389;DHT22;1205;47.984;7.668;2022-11-12T13:50:57;9.50;99.90
2389;DHT22;1205;47.984;7.668;2022-11-12T13:53:28;9.40;99.90
2389;DHT22;1205;47.984;7.668;2022-11-12T13:55:55;9.30;99.90
2389;DHT22;1205;47.984;7.668;2022-11-12T13:58:34;9.40;99.90
2389;DHT22;1205;47.984;7.668;2022-11-12T14:01:01;9.40;99.90
2389;DHT22;1205;47.984;7.668;2022-11-12T14:03:31;9.40;99.90
2389;DHT22;1205;47.984;7.668;2022-11-12T14:06:06;9.50;99.90
2389;DHT22;1205;47.984;7.668;2022-11-12T14:08:55;9.40;99.90
2389;DHT22;1205;47.984;7.668;2022-11-12T14:11:39;9.50;99.90
2389;DHT22;1205;47.984;7.668;2022-11-12T14:20:01;9.40;99.90
2389;DHT22;1205;47.984;7.668;2022-11-12T14:22:37;9.30;99.90
2389;DHT22;1205;47.984;7.668;2022-11-12T14:25:03;9.40;99.90
2389;DHT22;1205;47.984;7.668;2022-11-12T14:27:36;9.50;99.90
2389;DHT22;1205;47.984;7.668;2022-11-12T14:32:36;9.30;99.90
2389;DHT22;1205;47.984;7.668;2022-11-12T14:37:56;9.20;99.90
2389;DHT22;1205;47.984;7.668;2022-11-12T14:40:24;9.20;99.90
2389;DHT22;1205;47.984;7.668;2022-11-12T14:42:51;9.20;99.90
2389;DHT22;1205;47.984;7.668;2022-11-12T14:45:19;9.20;99.90
2389;DHT22;1205;47.984;7.668;2022-11-12T14:47:46;9.30;99.90
2389;DHT22;1205;47.984;7.668;2022-11-12T14:50:21;9.30;99.90
2389;DHT22;1205;47.984;7.668;2022-11-12T14:52:54;9.30;99.90
2389;DHT22;1205;47.984;7.668;2022-11-12T14:55:25;9.30;99.90
2389;DHT22;1205;47.984;7.668;2022-11-12T14:57:52;9.30;99.90
2389;DHT22;1205;47.984;7.668;2022-11-12T15:02:58;9.30;99.90
2389;DHT22;1205;47.984;7.668;2022-11-12T15:05:24;9.20;99.90
2389;DHT22;1205;47.984;7.668;2022-11-12T15:10:42;9.10;99.90
2389;DHT22;1205;47.984;7.668;2022-11-12T15:15:48;9.20;99.90
2389;DHT22;1205;47.984;7.668;2022-11-12T15:18:33;9.20;99.90
2389;DHT22;1205;47.984;7.668;2022-11-12T15:23:31;9.30;99.90
2389;DHT22;1205;47.984;7.668;2022-11-12T15:25:58;9.20;99.90
2389;DHT22;1205;47.984;7.668;2022-11-12T15:28:24;9.20;99.90
2389;DHT22;1205;47.984;7.668;2022-11-12T15:31:05;9.20;99.90
2389;DHT22;1205;47.984;7.668;2022-11-12T15:33:31;9.10;99.90
2389;DHT22;1205;47.984;7.668;2022-11-12T15:35:58;9.10;99.90
2389;DHT22;1205;47.984;7.668;2022-11-12T15:38:35;9.20;99.90
2389;DHT22;1205;47.984;7.668;2022-11-12T15:41:03;9.20;99.90
2389;DHT22;1205;47.984;7.668;2022-11-12T15:43:31;9.20;99.90
2389;DHT22;1205;47.984;7.668;2022-11-12T15:45:58;9.10;99.90
2389;DHT22;1205;47.984;7.668;2022-11-12T15:48:24;9.10;99.90
2389;DHT22;1205;47.984;7.668;2022-11-12T15:50:50;9.10;99.90
2389;DHT22;1205;47.984;7.668;2022-11-12T15:53:16;9.10;99.90
2389;DHT22;1205;47.984;7.668;2022-11-12T15:55:42;9.10;99.90
2389;DHT22;1205;47.984;7.668;2022-11-12T15:58:17;9.10;99.90
2389;DHT22;1205;47.984;7.668;2022-11-12T16:00:44;9.10;99.90
2389;DHT22;1205;47.984;7.668;2022-11-12T16:03:13;9.10;99.90
2389;DHT22;1205;47.984;7.668;2022-11-12T16:05:40;9.10;99.90
2389;DHT22;1205;47.984;7.668;2022-11-12T16:08:05;9.10;99.90
2389;DHT22;1205;47.984;7.668;2022-11-12T16:10:31;9.00;99.90
2389;DHT22;1205;47.984;7.668;2022-11-12T16:12:58;9.00;99.90
2389;DHT22;1205;47.984;7.668;2022-11-12T16:15:25;9.00;99.90
2389;DHT22;1205;47.984;7.668;2022-11-12T16:17:51;9.00;99.90
2389;DHT22;1205;47.984;7.668;2022-11-12T16:20:23;9.00;99.90
2389;DHT22;1205;47.984;7.668;2022-11-12T16:22:50;9.00;99.90
2389;DHT22;1205;47.984;7.668;2022-11-12T16:25:16;8.90;99.90
2389;DHT22;1205;47.984;7.668;2022-11-12T16:27:42;8.90;99.90
2389;DHT22;1205;47.984;7.668;2022-11-12T16:30:19;8.80;99.90
2389;DHT22;1205;47.984;7.668;2022-11-12T16:32:46;8.90;99.90
2389;DHT22;1205;47.984;7.668;2022-11-12T16:35:13;8.80;99.90
2389;DHT22;1205;47.984;7.668;2022-11-12T16:37:39;8.70;99.90
2389;DHT22;1205;47.984;7.668;2022-11-12T16:40:12;8.70;99.90
2389;DHT22;1205;47.984;7.668;2022-11-12T16:42:38;8.70;99.90
2389;DHT22;1205;47.984;7.668;2022-11-12T16:45:13;8.70;99.90
2389;DHT22;1205;47.984;7.668;2022-11-12T16:47:44;8.70;99.90
2389;DHT22;1205;47.984;7.668;2022-11-12T16:50:14;8.70;99.90
2389;DHT22;1205;47.984;7.668;2022-11-12T16:52:41;8.80;99.90
2389;DHT22;1205;47.984;7.668;2022-11-12T16:55:07;8.80;99.90
2389;DHT22;1205;47.984;7.668;2022-11-12T16:57:33;8.80;99.90
2389;DHT22;1205;47.984;7.668;2022-11-12T16:59:58;8.80;99.90
2389;DHT22;1205;47.984;7.668;2022-11-12T17:02:24;8.80;99.90
2389;DHT22;1205;47.984;7.668;2022-11-12T17:04:50;8.70;99.90
2389;DHT22;1205;47.984;7.668;2022-11-12T17:07:15;8.80;99.90
2389;DHT22;1205;47.984;7.668;2022-11-12T17:09:41;8.80;99.90
2389;DHT22;1205;47.984;7.668;2022-11-12T17:12:08;8.80;99.90
2389;DHT22;1205;47.984;7.668;2022-11-12T17:14:34;8.90;99.90
2389;DHT22;1205;47.984;7.668;2022-11-12T17:16:59;8.70;99.90
2389;DHT22;1205;47.984;7.668;2022-11-12T17:19:25;8.80;99.90
2389;DHT22;1205;47.984;7.668;2022-11-12T17:21:51;8.80;99.90
2389;DHT22;1205;47.984;7.668;2022-11-12T17:24:17;8.80;99.90
2389;DHT22;1205;47.984;7.668;2022-11-12T17:26:43;8.80;99.90
2389;DHT22;1205;47.984;7.668;2022-11-12T17:29:09;8.80;99.90
2389;DHT22;1205;47.984;7.668;2022-11-12T17:31:35;8.80;99.90
2389;DHT22;1205;47.984;7.668;2022-11-12T17:34:04;8.90;99.90
2389;DHT22;1205;47.984;7.668;2022-11-12T17:36:31;8.90;99.90
2389;DHT22;1205;47.984;7.668;2022-11-12T17:38:58;8.90;99.90
2389;DHT22;1205;47.984;7.668;2022-11-12T17:41:25;8.80;99.90
2389;DHT22;1205;47.984;7.668;2022-11-12T17:43:57;8.90;99.90
2389;DHT22;1205;47.984;7.668;2022-11-12T17:46:23;8.90;99.90
2389;DHT22;1205;47.984;7.668;2022-11-12T17:48:49;8.90;99.90
2389;DHT22;1205;47.984;7.668;2022-11-12T17:51:19;8.90;99.90
2389;DHT22;1205;47.984;7.668;2022-11-12T17:53:46;8.90;99.90
2389;DHT22;1205;47.984;7.668;2022-11-12T17:56:14;8.90;99.90
2389;DHT22;1205;47.984;7.668;2022-11-12T17:58:40;8.90;99.90
2389;DHT22;1205;47.984;7.668;2022-11-12T18:03:44;8.90;99.90
2389;DHT22;1205;47.984;7.668;2022-11-12T18:06:13;8.90;99.90
2389;DHT22;1205;47.984;7.668;2022-11-12T18:08:40;8.90;99.90
2389;DHT22;1205;47.984;7.668;2022-11-12T18:11:09;8.80;99.90
2389;DHT22;1205;47.984;7.668;2022-11-12T18:13:35;8.90;99.90
2389;DHT22;1205;47.984;7.668;2022-11-12T18:16:01;8.80;99.90
2389;DHT22;1205;47.984;7.668;2022-11-12T18:18:28;8.80;99.90
2389;DHT22;1205;47.984;7.668;2022-11-12T18:20:54;8.80;99.90
2389;DHT22;1205;47.984;7.668;2022-11-12T18:23:20;8.70;99.90
2389;DHT22;1205;47.984;7.668;2022-11-12T18:25:45;8.80;99.90
2389;DHT22;1205;47.984;7.668;2022-11-12T18:28:11;8.80;99.90
2389;DHT22;1205;47.984;7.668;2022-11-12T18:30:37;8.80;99.90
2389;DHT22;1205;47.984;7.668;2022-11-12T18:33:03;8.70;99.90
2389;DHT22;1205;47.984;7.668;2022-11-12T18:35:29;8.70;99.90
2389;DHT22;1205;47.984;7.668;2022-11-12T18:37:54;8.70;99.90
2389;DHT22;1205;47.984;7.668;2022-11-12T18:40:21;8.70;99.90
2389;DHT22;1205;47.984;7.668;2022-11-12T18:42:47;8.70;99.90